地図

経路データ

SID SEASON NUMBER BASIN SUBBASIN NAME ISO_TIME NATURE LAT LON WMO_WIND WMO_PRES WMO_AGENCY TRACK_TYPE DIST2LAND LANDFALL IFLAG USA_AGENCY USA_ATCF_ID USA_LAT USA_LON USA_RECORD USA_STATUS USA_WIND USA_PRES USA_SSHS USA_R34_NE USA_R34_SE USA_R34_SW USA_R34_NW USA_R50_NE USA_R50_SE USA_R50_SW USA_R50_NW USA_R64_NE USA_R64_SE USA_R64_SW USA_R64_NW USA_POCI USA_ROCI USA_RMW USA_EYE TOKYO_LAT TOKYO_LON TOKYO_GRADE TOKYO_WIND TOKYO_PRES TOKYO_R50_DIR TOKYO_R50_LONG TOKYO_R50_SHORT TOKYO_R30_DIR TOKYO_R30_LONG TOKYO_R30_SHORT TOKYO_LAND CMA_LAT CMA_LON CMA_CAT CMA_WIND CMA_PRES HKO_LAT HKO_LON HKO_CAT HKO_WIND HKO_PRES NEWDELHI_LAT NEWDELHI_LON NEWDELHI_GRADE NEWDELHI_WIND NEWDELHI_PRES NEWDELHI_CI NEWDELHI_DP NEWDELHI_POCI REUNION_LAT REUNION_LON REUNION_TYPE REUNION_WIND REUNION_PRES REUNION_TNUM REUNION_CI REUNION_RMW REUNION_R34_NE REUNION_R34_SE REUNION_R34_SW REUNION_R34_NW REUNION_R50_NE REUNION_R50_SE REUNION_R50_SW REUNION_R50_NW REUNION_R64_NE REUNION_R64_SE REUNION_R64_SW REUNION_R64_NW BOM_LAT BOM_LON BOM_TYPE BOM_WIND BOM_PRES BOM_TNUM BOM_CI BOM_RMW BOM_R34_NE BOM_R34_SE BOM_R34_SW BOM_R34_NW BOM_R50_NE BOM_R50_SE BOM_R50_SW BOM_R50_NW BOM_R64_NE BOM_R64_SE BOM_R64_SW BOM_R64_NW BOM_ROCI BOM_POCI BOM_EYE BOM_POS_METHOD BOM_PRES_METHOD NADI_LAT NADI_LON NADI_CAT NADI_WIND NADI_PRES WELLINGTON_LAT WELLINGTON_LON WELLINGTON_WIND WELLINGTON_PRES DS824_LAT DS824_LON DS824_STAGE DS824_WIND DS824_PRES TD9636_LAT TD9636_LON TD9636_STAGE TD9636_WIND TD9636_PRES TD9635_LAT TD9635_LON TD9635_WIND TD9635_PRES TD9635_ROCI NEUMANN_LAT NEUMANN_LON NEUMANN_CLASS NEUMANN_WIND NEUMANN_PRES MLC_LAT MLC_LON MLC_CLASS MLC_WIND MLC_PRES USA_GUST BOM_GUST BOM_GUST_PER REUNION_GUST REUNION_GUST_PER USA_SEAHGT USA_SEARAD_NE USA_SEARAD_SE USA_SEARAD_SW USA_SEARAD_NW STORM_SPEED STORM_DIR
1908318N10128 1908 52 WP MM NOT_NAMED 1908-11-12 16:00:00 NR 9.60000 128.100 main 213 177 __________O___ -1 9.60000 128.100 7 12 292
1908318N10128 1908 52 WP MM NOT_NAMED 1908-11-12 18:00:00 NR 9.75062 127.729 main 177 141 __________P___ -1 9.75062 127.729 7 12 293
1908318N10128 1908 52 WP MM NOT_NAMED 1908-11-12 21:00:00 NR 9.97593 127.180 main 141 109 __________P___ -1 9.97593 127.180 7 12 293
1908318N10128 1908 52 WP MM NOT_NAMED 1908-11-13 00:00:00 NR 10.2007 126.651 main 109 80 __________P___ -1 10.2007 126.651 7 11 294
1908318N10128 1908 52 WP MM NOT_NAMED 1908-11-13 03:00:00 NR 10.4252 126.156 main 80 60 __________P___ -1 10.4252 126.156 7 11 295
1908318N10128 1908 52 WP MM NOT_NAMED 1908-11-13 04:00:00 NR 10.5000 126.000 main 60 44 __________O___ -1 10.5000 126.000 3 10 297
1908318N10128 1908 52 WP MM NOT_NAMED 1908-11-13 06:00:00 NR 10.6498 125.705 main 46 22 __________P___ -1 10.6498 125.705 3 9 299
1908318N10128 1908 52 WP MM NOT_NAMED 1908-11-13 09:00:00 NR 10.8746 125.301 main 22 0 __________P___ -1 10.8746 125.301 3 9 301
1908318N10128 1908 52 WP MM NOT_NAMED 1908-11-13 12:00:00 NR 11.0997 124.936 main 0 0 __________P___ -1 11.0997 124.936 3 8 303
1908318N10128 1908 52 WP MM NOT_NAMED 1908-11-13 15:00:00 NR 11.3249 124.604 main 0 0 __________P___ -1 11.3249 124.604 3 8 305
1908318N10128 1908 52 WP MM NOT_NAMED 1908-11-13 16:00:00 NR 11.4000 124.500 main 0 0 __________O___ -1 11.4000 124.500 4 8 305
1908318N10128 1908 52 WP MM NOT_NAMED 1908-11-13 18:00:00 NR 11.5499 124.281 main 10 0 __________P___ -1 11.5499 124.281 4 8 306
1908318N10128 1908 52 WP MM NOT_NAMED 1908-11-13 21:00:00 NR 11.7749 123.977 main 0 0 __________P___ -1 11.7749 123.977 4 7 309
1908318N10128 1908 52 WP MM NOT_NAMED 1908-11-14 00:00:00 NR 11.9999 123.705 main 10 0 __________P___ -1 11.9999 123.705 4 7 312
1908318N10128 1908 52 WP MM NOT_NAMED 1908-11-14 03:00:00 NR 12.2250 123.470 main 0 0 __________P___ -1 12.2250 123.470 4 6 315
1908318N10128 1908 52 WP MM NOT_NAMED 1908-11-14 04:00:00 NR 12.3000 123.400 main 0 0 __________O___ -1 12.3000 123.400 4 6 317
1908318N10128 1908 52 WP MM NOT_NAMED 1908-11-14 06:00:00 NR 12.4447 123.258 main 0 10 __________P___ -1 12.4447 123.258 4 6 319
1908318N10128 1908 52 WP MM NOT_NAMED 1908-11-14 09:00:00 NR 12.6616 123.077 main 31 31 __________P___ -1 12.6616 123.077 4 5 324
1908318N10128 1908 52 WP MM NOT_NAMED 1908-11-14 12:00:00 NR 12.8841 122.933 main 39 15 __________P___ -1 12.8841 122.933 4 5 332
1908318N10128 1908 52 WP MM NOT_NAMED 1908-11-14 15:00:00 NR 13.1183 122.827 main 15 10 __________P___ -1 13.1183 122.827 4 5 337
1908318N10128 1908 52 WP MM NOT_NAMED 1908-11-14 16:00:00 NR 13.2000 122.800 main 10 0 __________O___ -1 13.2000 122.800 4 6 344
1908318N10128 1908 52 WP MM NOT_NAMED 1908-11-14 18:00:00 NR 13.3902 122.749 main 0 0 __________P___ -1 13.3902 122.749 4 6 349
1908318N10128 1908 52 WP MM NOT_NAMED 1908-11-14 21:00:00 NR 13.6886 122.705 main 10 0 __________P___ -1 13.6886 122.705 4 6 355
1908318N10128 1908 52 WP MM NOT_NAMED 1908-11-15 00:00:00 NR 13.9777 122.690 main 0 0 __________P___ -1 13.9777 122.690 4 5 358
1908318N10128 1908 52 WP MM NOT_NAMED 1908-11-15 03:00:00 NR 14.2293 122.695 main 0 0 __________P___ -1 14.2293 122.695 4 5 0
1908318N10128 1908 52 WP MM NOT_NAMED 1908-11-15 04:00:00 NR 14.3000 122.700 main 11 11 __________O___ -1 14.3000 122.700 4 4 0
1908318N10128 1908 52 WP MM NOT_NAMED 1908-11-15 06:00:00 NR 14.4040 122.700 main 22 22 __________P___ -1 14.4040 122.700 4 3 5
1908318N10128 1908 52 WP MM NOT_NAMED 1908-11-15 09:00:00 NR 14.5158 122.713 main 33 33 __________P___ -1 14.5158 122.713 4 2 13
1908318N10128 1908 52 WP MM NOT_NAMED 1908-11-15 12:00:00 NR 14.5968 122.740 main 44 44 __________P___ -1 14.5968 122.740 4 2 25
1908318N10128 1908 52 WP MM NOT_NAMED 1908-11-15 15:00:00 NR 14.6719 122.783 main 55 55 __________P___ -1 14.6719 122.783 4 2 30
1908318N10128 1908 52 WP MM NOT_NAMED 1908-11-15 16:00:00 NR 14.7000 122.800 main 55 55 __________O___ -1 14.7000 122.800 4 2 28
1908318N10128 1908 52 WP MM NOT_NAMED 1908-11-15 18:00:00 NR 14.7829 122.839 main 67 67 __________P___ -1 14.7829 122.839 4 3 26
1908318N10128 1908 52 WP MM NOT_NAMED 1908-11-15 21:00:00 NR 14.9136 122.909 main 78 78 __________P___ -1 14.9136 122.909 4 3 29
1908318N10128 1908 52 WP MM NOT_NAMED 1908-11-16 00:00:00 NR 15.0437 122.989 main 90 101 __________P___ -1 15.0437 122.989 4 3 32
1908318N10128 1908 52 WP MM NOT_NAMED 1908-11-16 03:00:00 NR 15.1638 123.073 main 113 113 __________P___ -1 15.1638 123.073 4 3 35
1908318N10128 1908 52 WP MM NOT_NAMED 1908-11-16 04:00:00 NR 15.2000 123.100 main 113 113 __________O___ -1 15.2000 123.100 4 3 37
1908318N10128 1908 52 WP MM NOT_NAMED 1908-11-16 06:00:00 NR 15.2640 123.155 main 127 127 __________P___ -1 15.2640 123.155 4 2 42
1908318N10128 1908 52 WP MM NOT_NAMED 1908-11-16 09:00:00 NR 15.3476 123.238 main 127 138 __________P___ -1 15.3476 123.238 4 2 44
1908318N10128 1908 52 WP MM NOT_NAMED 1908-11-16 12:00:00 NR 15.4188 123.316 main 141 141 __________P___ -1 15.4188 123.316 4 2 45
1908318N10128 1908 52 WP MM NOT_NAMED 1908-11-16 15:00:00 NR 15.4808 123.382 main 150 150 __________P___ -1 15.4808 123.382 4 2 43
1908318N10128 1908 52 WP MM NOT_NAMED 1908-11-16 16:00:00 NR 15.5000 123.400 main 150 150 __________O___ -1 15.5000 123.400 4 1 43
1908318N10128 1908 52 WP MM NOT_NAMED 1908-11-16 18:00:00 NR 15.5312 123.423 main 150 144 __________P___ -1 15.5312 123.423 4 1 26
1908318N10128 1908 52 WP MM NOT_NAMED 1908-11-16 21:00:00 NR 15.5714 123.444 main 144 144 __________P___ -1 15.5714 123.444 4 1 19
1908318N10128 1908 52 WP MM NOT_NAMED 1908-11-17 00:00:00 NR 15.6150 123.462 main 154 149 __________P___ -1 15.6150 123.462 4 1 23
1908318N10128 1908 52 WP MM NOT_NAMED 1908-11-17 03:00:00 NR 15.6745 123.487 main 149 149 __________P___ -1 15.6745 123.487 4 1 29
1908318N10128 1908 52 WP MM NOT_NAMED 1908-11-17 04:00:00 NR 15.7000 123.500 main 149 146 __________O___ -1 15.7000 123.500 4 2 18
1908318N10128 1908 52 WP MM NOT_NAMED 1908-11-17 06:00:00 NR 15.7741 123.533 main 146 146 __________P___ -1 15.7741 123.533 4 3 24
1908318N10128 1908 52 WP MM NOT_NAMED 1908-11-17 09:00:00 NR 15.9043 123.596 main 153 151 __________P___ -1 15.9043 123.596 4 3 27
1908318N10128 1908 52 WP MM NOT_NAMED 1908-11-17 12:00:00 NR 16.0407 123.673 main 161 156 __________P___ -1 16.0407 123.673 4 3 32
1908318N10128 1908 52 WP MM NOT_NAMED 1908-11-17 15:00:00 NR 16.1647 123.766 main 159 159 __________P___ -1 16.1647 123.766 4 3 36
1908318N10128 1908 52 WP MM NOT_NAMED 1908-11-17 16:00:00 NR 16.2000 123.800 main 159 159 __________O___ -1 16.2000 123.800 4 3 49
1908318N10128 1908 52 WP MM NOT_NAMED 1908-11-17 18:00:00 NR 16.2588 123.873 main 163 163 __________P___ -1 16.2588 123.873 4 3 56
1908318N10128 1908 52 WP MM NOT_NAMED 1908-11-17 21:00:00 NR 16.3219 123.993 main 173 173 __________P___ -1 16.3219 123.993 4 3 66
1908318N10128 1908 52 WP MM NOT_NAMED 1908-11-18 00:00:00 NR 16.3630 124.122 main 179 179 __________P___ -1 16.3630 124.122 4 3 74
1908318N10128 1908 52 WP MM NOT_NAMED 1908-11-18 03:00:00 NR 16.3916 124.255 main 199 199 __________P___ -1 16.3916 124.255 4 3 78
1908318N10128 1908 52 WP MM NOT_NAMED 1908-11-18 04:00:00 NR 16.4000 124.300 main 199 __________O___ -1 16.4000 124.300 7 3 78

デジタル台風データ・検索

IBTrACS Databaseについて

本データベースは、米国NOAAが公開する1842年以降の世界の熱帯低気圧のベストトラックデータアーカイブInternational Best Track Archive for Climate Stewardship (IBTrACS)を、ウェブで閲覧しやすい形式に変換したものです。

最終更新日:2021-10-21